createdAt,value
2022-09-12T00:01:19.533Z,14.45
2022-09-12T00:03:46.620Z,14.47
2022-09-12T00:06:22.881Z,14.48
2022-09-12T00:08:50.329Z,14.38
2022-09-12T00:11:16.682Z,14.45
2022-09-12T00:13:43.677Z,14.48
2022-09-12T00:16:36.599Z,14.40
2022-09-12T00:19:04.093Z,14.36
2022-09-12T00:21:33.176Z,14.41
2022-09-12T00:23:59.546Z,14.16
2022-09-12T00:26:25.949Z,14.23
2022-09-12T00:28:52.669Z,14.16
2022-09-12T00:31:23.940Z,14.24
2022-09-12T00:33:50.438Z,14.28
2022-09-12T00:36:19.644Z,14.33
2022-09-12T00:38:47.314Z,14.23
2022-09-12T00:41:27.290Z,14.12
2022-09-12T00:43:59.624Z,14.13
2022-09-12T00:46:32.464Z,14.07
2022-09-12T00:49:03.778Z,14.04
2022-09-12T00:51:34.049Z,14.07
2022-09-12T00:54:05.652Z,14.09
2022-09-12T00:56:32.836Z,13.97
2022-09-12T00:59:10.541Z,14.02
2022-09-12T01:01:37.397Z,14.00
2022-09-12T01:04:03.908Z,13.88
2022-09-12T01:06:36.319Z,14.02
2022-09-12T01:09:04.742Z,13.97
2022-09-12T01:11:34.030Z,13.90
2022-09-12T01:14:00.753Z,13.81
2022-09-12T01:16:27.404Z,13.78
2022-09-12T01:19:32.888Z,13.78
2022-09-12T01:22:30.165Z,13.78
2022-09-12T01:25:12.622Z,13.79
2022-09-12T01:27:45.884Z,13.73
2022-09-12T01:30:27.332Z,13.82
2022-09-12T01:33:12.362Z,13.82
2022-09-12T01:35:55.619Z,13.81
2022-09-12T01:38:27.515Z,13.74
2022-09-12T01:41:12.233Z,13.81
2022-09-12T01:43:59.315Z,13.78
2022-09-12T01:46:35.764Z,13.54
2022-09-12T01:49:27.237Z,13.71
2022-09-12T01:52:18.074Z,13.74
2022-09-12T01:54:51.238Z,13.81
2022-09-12T01:57:27.931Z,13.76
2022-09-12T02:00:00.387Z,13.86
2022-09-12T02:02:41.906Z,13.84
2022-09-12T02:05:12.699Z,13.69
2022-09-12T02:07:44.950Z,13.67
2022-09-12T02:10:16.043Z,13.76
2022-09-12T02:12:57.652Z,13.70
2022-09-12T02:15:32.542Z,13.69
2022-09-12T02:18:04.512Z,13.49
2022-09-12T02:20:50.771Z,13.51
2022-09-12T02:23:22.460Z,13.56
2022-09-12T02:25:52.684Z,13.60
2022-09-12T02:28:26.570Z,13.66
2022-09-12T02:30:59.261Z,13.66
2022-09-12T02:33:39.160Z,13.67
2022-09-12T02:36:14.310Z,13.72
2022-09-12T02:38:46.817Z,13.54
2022-09-12T02:41:17.300Z,13.47
2022-09-12T02:43:43.770Z,13.42
2022-09-12T02:46:18.015Z,13.48
2022-09-12T02:48:44.430Z,13.49
2022-09-12T02:51:11.773Z,13.44
2022-09-12T02:53:38.694Z,13.29
2022-09-12T02:56:12.630Z,13.32
2022-09-12T02:58:39.147Z,13.23
2022-09-12T03:01:18.908Z,13.15
2022-09-12T03:04:21.001Z,13.13
2022-09-12T03:06:55.310Z,13.18
2022-09-12T03:09:42.875Z,12.97
2022-09-12T03:12:30.200Z,13.09
2022-09-12T03:15:31.596Z,13.24
2022-09-12T03:18:19.954Z,13.23
2022-09-12T03:20:58.953Z,13.34
2022-09-12T03:23:33.832Z,13.07
2022-09-12T03:26:06.563Z,13.30
2022-09-12T03:28:35.532Z,13.24
2022-09-12T03:31:13.239Z,13.28
2022-09-12T03:33:39.585Z,13.18
2022-09-12T03:36:06.315Z,13.08
2022-09-12T03:38:32.660Z,12.95
2022-09-12T03:40:59.055Z,13.03
2022-09-12T03:43:25.422Z,13.15
2022-09-12T03:45:53.296Z,13.35
2022-09-12T03:48:21.076Z,13.08
2022-09-12T03:50:47.442Z,13.34
2022-09-12T03:53:17.060Z,13.26
2022-09-12T03:55:44.330Z,13.07
2022-09-12T03:58:10.667Z,13.07
2022-09-12T04:00:38.826Z,13.13
2022-09-12T04:03:05.249Z,13.07
2022-09-12T04:05:31.610Z,13.12
2022-09-12T04:07:58.099Z,13.30
2022-09-12T04:10:24.492Z,13.19
2022-09-12T04:12:50.976Z,13.19
2022-09-12T04:15:17.406Z,13.21
2022-09-12T04:17:43.817Z,13.15
2022-09-12T04:20:10.674Z,13.31
2022-09-12T04:22:37.063Z,13.12
2022-09-12T04:25:04.006Z,13.17
2022-09-12T04:27:30.881Z,12.98
2022-09-12T04:29:58.076Z,13.09
2022-09-12T04:32:24.531Z,13.16
2022-09-12T04:34:52.390Z,13.29
2022-09-12T04:37:19.322Z,13.10
2022-09-12T04:39:45.740Z,12.99
2022-09-12T04:42:12.351Z,13.05
2022-09-12T04:44:38.738Z,12.93
2022-09-12T04:47:05.168Z,13.02
2022-09-12T04:49:31.710Z,13.03
2022-09-12T04:51:58.087Z,12.99
2022-09-12T04:54:24.629Z,13.00
2022-09-12T04:56:52.476Z,13.05
2022-09-12T04:59:21.111Z,13.00
2022-09-12T05:01:48.385Z,13.14
2022-09-12T05:04:15.562Z,13.19
2022-09-12T05:06:43.075Z,13.18
2022-09-12T05:09:12.466Z,13.16
2022-09-12T05:12:03.101Z,13.04
2022-09-12T05:14:27.483Z,13.10
2022-09-12T05:16:53.944Z,13.09
2022-09-12T05:19:20.362Z,12.95
2022-09-12T05:21:46.711Z,13.07
2022-09-12T05:24:13.184Z,13.12
2022-09-12T05:26:39.596Z,12.90
2022-09-12T05:29:06.992Z,12.87
2022-09-12T05:31:33.418Z,13.11
2022-09-12T05:33:59.802Z,13.00
2022-09-12T05:36:29.222Z,12.89
2022-09-12T05:38:56.251Z,12.85
2022-09-12T05:41:25.741Z,12.87
2022-09-12T05:43:54.399Z,13.06
2022-09-12T05:46:23.239Z,12.98
2022-09-12T05:48:55.133Z,12.99
2022-09-12T05:51:27.975Z,12.95
2022-09-12T05:53:59.887Z,13.09
2022-09-12T05:56:28.859Z,13.11
2022-09-12T05:58:58.863Z,13.10
2022-09-12T06:01:27.235Z,13.11
2022-09-12T06:03:55.531Z,13.08
2022-09-12T06:06:24.552Z,13.09
2022-09-12T06:08:53.947Z,13.11
2022-09-12T06:11:22.934Z,13.02
2022-09-12T06:13:50.952Z,13.05
2022-09-12T06:16:20.220Z,13.08
2022-09-12T06:18:48.660Z,13.17
2022-09-12T06:21:15.516Z,13.18
2022-09-12T06:23:42.605Z,12.94
2022-09-12T06:26:10.681Z,13.09
2022-09-12T06:28:39.975Z,13.02
2022-09-12T06:31:15.151Z,13.04
2022-09-12T06:33:46.829Z,13.28
2022-09-12T06:36:18.593Z,13.04
2022-09-12T06:38:46.259Z,13.15
2022-09-12T06:41:13.645Z,13.14
2022-09-12T06:43:41.394Z,13.20
2022-09-12T06:46:09.181Z,13.27
2022-09-12T06:48:39.733Z,13.28
2022-09-12T06:51:14.660Z,13.30
2022-09-12T06:53:42.083Z,13.30
2022-09-12T06:56:19.138Z,13.45
2022-09-12T06:58:47.009Z,13.14
2022-09-12T07:01:18.945Z,13.23
2022-09-12T07:03:54.958Z,13.23
2022-09-12T07:06:24.239Z,13.37
2022-09-12T07:08:50.983Z,13.27
2022-09-12T07:11:23.912Z,13.33
2022-09-12T07:13:55.978Z,13.34
2022-09-12T07:16:22.755Z,13.37
2022-09-12T07:18:52.905Z,13.40
2022-09-12T07:21:20.147Z,13.33
2022-09-12T07:23:47.308Z,13.28
2022-09-12T07:26:15.629Z,13.17
2022-09-12T07:28:42.431Z,12.97
2022-09-12T07:31:17.665Z,13.21
2022-09-12T07:33:44.588Z,13.25
2022-09-12T07:36:13.817Z,13.35
2022-09-12T07:38:41.357Z,13.25
2022-09-12T07:41:15.094Z,13.36
2022-09-12T07:43:44.342Z,13.33
2022-09-12T07:46:11.605Z,13.35
2022-09-12T07:48:39.199Z,13.39
2022-09-12T07:51:08.567Z,13.43
2022-09-12T07:53:37.633Z,13.38
2022-09-12T07:56:05.441Z,13.44
2022-09-12T07:58:33.863Z,13.57
2022-09-12T08:01:05.775Z,13.54
2022-09-12T08:03:32.168Z,13.67
2022-09-12T08:06:04.778Z,13.63
2022-09-12T08:08:31.803Z,13.67
2022-09-12T08:11:00.139Z,13.75
2022-09-12T08:13:28.056Z,13.79
2022-09-12T08:16:02.585Z,13.77
2022-09-12T08:18:31.119Z,13.84
2022-09-12T08:20:59.219Z,13.84
2022-09-12T08:23:26.057Z,13.79
2022-09-12T08:25:56.931Z,13.78
2022-09-12T08:28:24.990Z,13.88
2022-09-12T08:30:52.389Z,13.94
2022-09-12T08:33:19.396Z,13.95
2022-09-12T08:35:46.659Z,14.00
2022-09-12T08:38:13.117Z,14.01
2022-09-12T08:40:59.439Z,14.07
2022-09-12T08:43:50.969Z,14.12
2022-09-12T08:46:29.252Z,14.18
2022-09-12T08:48:58.464Z,14.16
2022-09-12T08:51:25.420Z,14.09
2022-09-12T08:53:54.635Z,14.17
2022-09-12T08:56:21.386Z,14.20
2022-09-12T08:58:48.155Z,14.29
2022-09-12T09:01:34.871Z,14.34
2022-09-12T09:04:10.587Z,14.36
2022-09-12T09:06:52.208Z,14.46
2022-09-12T09:09:21.897Z,14.58
2022-09-12T09:12:03.318Z,14.62
2022-09-12T09:15:01.028Z,14.67
2022-09-12T09:18:04.139Z,14.80
2022-09-12T09:20:39.326Z,14.88
2022-09-12T09:23:17.671Z,15.09
2022-09-12T09:26:14.580Z,15.24
2022-09-12T09:28:51.383Z,15.29
2022-09-12T09:31:20.651Z,15.41
2022-09-12T09:33:49.705Z,15.63
2022-09-12T09:36:38.894Z,15.83
2022-09-12T09:39:12.504Z,15.94
2022-09-12T09:44:59.096Z,16.34
2022-09-12T09:47:25.999Z,16.48
2022-09-12T09:49:52.394Z,16.57
2022-09-12T09:52:26.213Z,16.65
2022-09-12T09:54:57.557Z,16.71
2022-09-12T09:57:36.206Z,16.92
2022-09-12T10:00:27.779Z,17.03
2022-09-12T10:03:34.339Z,17.14
2022-09-12T10:06:06.008Z,17.28
2022-09-12T10:08:35.620Z,17.40
2022-09-12T10:11:19.501Z,17.60
2022-09-12T10:13:53.102Z,17.65
2022-09-12T10:16:27.694Z,17.67
2022-09-12T10:18:56.859Z,17.78
2022-09-12T10:21:32.280Z,17.95
2022-09-12T10:24:03.164Z,18.18
2022-09-12T10:26:36.259Z,18.36
2022-09-12T10:29:28.559Z,18.46
2022-09-12T10:31:58.724Z,18.51
2022-09-12T10:34:31.011Z,18.57
2022-09-12T10:37:04.594Z,18.62
2022-09-12T10:39:32.633Z,18.70
2022-09-12T10:41:59.223Z,18.75
2022-09-12T10:44:33.609Z,18.82
2022-09-12T10:47:19.409Z,18.89
2022-09-12T10:49:45.844Z,19.04
2022-09-12T10:52:23.394Z,19.27
2022-09-12T10:54:54.284Z,19.39
2022-09-12T10:58:00.953Z,19.55
2022-09-12T11:00:30.286Z,19.86
2022-09-12T11:03:16.236Z,20.11
2022-09-12T11:05:55.234Z,20.24
2022-09-12T11:08:45.265Z,20.25
2022-09-12T11:11:39.956Z,20.32
2022-09-12T11:14:19.107Z,20.45
2022-09-12T11:17:18.339Z,20.53
2022-09-12T11:20:13.916Z,20.65
2022-09-12T11:23:17.558Z,20.89
2022-09-12T11:26:02.788Z,21.05
2022-09-12T11:28:46.687Z,21.28
2022-09-12T11:31:44.251Z,21.39
2022-09-12T11:34:14.335Z,21.45
2022-09-12T11:37:13.306Z,21.59
2022-09-12T11:39:46.457Z,21.64
2022-09-12T11:42:20.590Z,21.81
2022-09-12T11:44:56.355Z,21.88
2022-09-12T11:47:24.820Z,21.96
2022-09-12T11:49:54.588Z,22.04
2022-09-12T11:52:25.999Z,22.11
2022-09-12T11:55:06.595Z,22.20
2022-09-12T11:57:48.315Z,22.21
2022-09-12T12:00:26.560Z,22.19
2022-09-12T12:03:14.391Z,22.26
2022-09-12T12:05:59.609Z,22.26
2022-09-12T12:08:29.665Z,22.24
2022-09-12T12:11:03.933Z,22.28
2022-09-12T12:13:35.365Z,22.44
2022-09-12T12:16:14.343Z,22.50
2022-09-12T12:18:43.218Z,22.67
2022-09-12T12:21:26.578Z,22.63
2022-09-12T12:24:08.155Z,22.66
2022-09-12T12:26:40.626Z,22.66
2022-09-12T12:29:41.502Z,22.72
2022-09-12T12:32:09.797Z,22.85
2022-09-12T12:34:36.117Z,22.95
2022-09-12T12:37:43.502Z,22.98
2022-09-12T12:40:22.473Z,22.93
2022-09-12T12:42:48.800Z,22.87
2022-09-12T12:45:18.170Z,22.96
2022-09-12T12:47:47.610Z,22.93
2022-09-12T12:50:16.927Z,22.91
2022-09-12T12:52:47.541Z,22.97
2022-09-12T12:55:19.794Z,22.83
2022-09-12T12:57:52.567Z,22.79
2022-09-12T13:00:25.132Z,22.73
2022-09-12T13:03:00.443Z,22.93
2022-09-12T13:05:29.892Z,22.95
2022-09-12T13:08:33.076Z,22.96
2022-09-12T13:11:03.016Z,23.11
2022-09-12T13:13:41.018Z,23.09
2022-09-12T13:16:10.725Z,23.11
2022-09-12T13:18:45.431Z,23.13
2022-09-12T13:21:13.842Z,23.07
2022-09-12T13:23:41.231Z,23.03
2022-09-12T13:26:23.796Z,22.98
2022-09-12T13:28:51.436Z,22.92
2022-09-12T13:31:25.733Z,22.88
2022-09-12T13:33:53.689Z,22.82
2022-09-12T13:36:53.742Z,22.73
2022-09-12T13:39:34.311Z,22.51
2022-09-12T13:42:39.850Z,22.37
2022-09-12T13:45:12.822Z,22.23
2022-09-12T13:47:45.349Z,22.14
2022-09-12T13:50:18.395Z,22.01
2022-09-12T13:52:49.555Z,21.89
2022-09-12T13:55:31.397Z,21.77
2022-09-12T13:58:04.261Z,21.70
2022-09-12T14:00:33.195Z,21.61
2022-09-12T14:03:18.795Z,21.52
2022-09-12T14:05:54.968Z,21.47
2022-09-12T14:08:23.724Z,21.39
2022-09-12T14:10:51.265Z,21.35
2022-09-12T14:13:23.095Z,21.31
2022-09-12T14:15:55.140Z,21.25
2022-09-12T14:18:36.545Z,21.21
2022-09-12T14:21:10.598Z,21.13
2022-09-12T14:23:41.478Z,21.10
2022-09-12T14:26:12.236Z,21.08
2022-09-12T14:28:49.527Z,21.09
2022-09-12T14:31:16.642Z,21.08
2022-09-12T14:33:54.653Z,21.03
2022-09-12T14:36:29.994Z,21.05
2022-09-12T14:39:02.874Z,21.02
2022-09-12T14:41:34.508Z,20.97
2022-09-12T14:44:05.202Z,21.00
2022-09-12T14:46:37.255Z,20.95
2022-09-12T14:49:13.430Z,20.91
2022-09-12T14:51:44.712Z,20.88
2022-09-12T14:54:27.633Z,20.82
2022-09-12T14:57:00.379Z,20.80
2022-09-12T14:59:36.394Z,20.78
2022-09-12T15:02:21.034Z,20.78
2022-09-12T15:05:14.118Z,20.78
2022-09-12T15:07:43.184Z,20.76
2022-09-12T15:10:36.007Z,20.75
2022-09-12T15:13:05.411Z,20.69
2022-09-12T15:15:32.647Z,20.69
2022-09-12T15:18:01.377Z,20.68
2022-09-12T15:20:29.918Z,20.66
2022-09-12T15:22:56.795Z,20.64
2022-09-12T15:25:23.357Z,20.62
2022-09-12T15:27:53.673Z,20.59
2022-09-12T15:30:20.052Z,20.57
2022-09-12T15:32:46.411Z,20.55
2022-09-12T15:35:17.913Z,20.54
2022-09-12T15:37:44.928Z,20.48
2022-09-12T15:40:12.418Z,20.47
2022-09-12T15:42:39.131Z,20.49
2022-09-12T15:45:22.347Z,20.47
2022-09-12T15:47:48.835Z,20.46
2022-09-12T15:50:15.431Z,20.47
2022-09-12T15:52:42.978Z,20.50
2022-09-12T15:55:25.237Z,20.52
2022-09-12T15:57:52.022Z,20.49
2022-09-12T16:00:19.299Z,20.48
2022-09-12T16:02:48.958Z,20.48
2022-09-12T16:05:19.514Z,20.48
2022-09-12T16:07:45.970Z,20.48
2022-09-12T16:10:17.812Z,20.48
2022-09-12T16:12:45.477Z,20.44
2022-09-12T16:15:14.022Z,20.40
2022-09-12T16:17:40.772Z,20.39
2022-09-12T16:20:08.468Z,20.36
2022-09-12T16:22:34.890Z,20.39
2022-09-12T16:25:01.499Z,20.33
2022-09-12T16:27:27.864Z,20.34
2022-09-12T16:29:54.382Z,20.35
2022-09-12T16:32:20.815Z,20.33
2022-09-12T16:34:47.214Z,20.32
2022-09-12T16:37:13.652Z,20.29
2022-09-12T16:39:40.039Z,20.26
2022-09-12T16:42:06.558Z,20.27
2022-09-12T16:44:32.906Z,20.25
2022-09-12T16:46:59.261Z,20.22
2022-09-12T16:49:25.770Z,20.23
2022-09-12T16:51:52.218Z,20.20
2022-09-12T16:54:19.583Z,20.17
2022-09-12T16:56:46.607Z,20.12
2022-09-12T16:59:16.214Z,20.07
2022-09-12T17:01:43.050Z,20.11
2022-09-12T17:04:10.163Z,20.08
2022-09-12T17:06:36.652Z,20.00
2022-09-12T17:09:04.715Z,19.95
2022-09-12T17:11:33.645Z,19.85
2022-09-12T17:14:05.090Z,19.81
2022-09-12T17:16:38.218Z,19.74
2022-09-12T17:19:05.991Z,19.62
2022-09-12T17:21:32.743Z,19.55
2022-09-12T17:23:59.250Z,19.50
2022-09-12T17:26:26.656Z,19.38
2022-09-12T17:28:53.049Z,19.29
2022-09-12T17:31:19.729Z,19.27
2022-09-12T17:33:46.350Z,19.23
2022-09-12T17:36:16.254Z,19.21
2022-09-12T17:38:45.199Z,19.19
2022-09-12T17:41:20.663Z,19.18
2022-09-12T17:43:52.076Z,19.06
2022-09-12T17:46:19.914Z,18.96
2022-09-12T17:48:57.161Z,18.95
2022-09-12T17:51:25.249Z,18.94
2022-09-12T17:54:21.236Z,18.86
2022-09-12T17:56:52.119Z,18.89
2022-09-12T17:59:20.371Z,18.89
2022-09-12T18:02:05.580Z,18.81
2022-09-12T18:04:32.387Z,18.81
2022-09-12T18:07:00.237Z,18.68
2022-09-12T18:09:27.142Z,18.75
2022-09-12T18:11:53.979Z,18.64
2022-09-12T18:14:20.701Z,18.64
2022-09-12T18:16:47.956Z,18.64
2022-09-12T18:19:14.577Z,18.66
2022-09-12T18:21:41.568Z,18.56
2022-09-12T18:24:10.042Z,18.40
2022-09-12T18:26:36.928Z,18.42
2022-09-12T18:29:03.338Z,18.45
2022-09-12T18:31:31.016Z,18.43
2022-09-12T18:34:02.446Z,18.35
2022-09-12T18:36:30.232Z,18.32
2022-09-12T18:38:58.570Z,18.27
2022-09-12T18:41:25.822Z,18.20
2022-09-12T18:43:56.684Z,18.20
2022-09-12T18:46:23.969Z,18.18
2022-09-12T18:48:50.683Z,18.06
2022-09-12T18:51:19.973Z,18.02
2022-09-12T18:53:54.196Z,17.96
2022-09-12T18:56:21.863Z,17.94
2022-09-12T18:58:55.018Z,17.89
2022-09-12T19:01:27.199Z,17.92
2022-09-12T19:03:54.515Z,17.97
2022-09-12T19:06:26.526Z,17.84
2022-09-12T19:08:54.511Z,17.83
2022-09-12T19:11:21.852Z,17.83
2022-09-12T19:13:50.635Z,17.79
2022-09-12T19:16:19.780Z,17.76
2022-09-12T19:18:49.811Z,17.73
2022-09-12T19:21:24.619Z,17.73
2022-09-12T19:23:52.352Z,17.69
2022-09-12T19:26:20.451Z,17.53
2022-09-12T19:28:47.175Z,17.50
2022-09-12T19:31:16.605Z,17.52
2022-09-12T19:33:43.042Z,17.56
2022-09-12T19:36:33.658Z,17.53
2022-09-12T19:38:59.978Z,17.52
2022-09-12T19:41:26.481Z,17.50
2022-09-12T19:43:53.000Z,17.48
2022-09-12T19:46:21.955Z,17.45
2022-09-12T19:48:49.154Z,17.45
2022-09-12T19:51:16.907Z,17.33
2022-09-12T19:53:43.924Z,17.26
2022-09-12T19:56:12.008Z,17.34
2022-09-12T19:58:41.039Z,17.29
2022-09-12T20:01:14.950Z,17.30
2022-09-12T20:03:42.290Z,17.13
2022-09-12T20:06:10.938Z,17.06
2022-09-12T20:08:39.929Z,17.20
2022-09-12T20:11:07.303Z,17.25
2022-09-12T20:13:33.780Z,17.21
2022-09-12T20:16:11.615Z,17.25
2022-09-12T20:18:38.642Z,17.22
2022-09-12T20:21:14.815Z,17.14
2022-09-12T20:23:41.390Z,16.96
2022-09-12T20:26:09.215Z,17.12
2022-09-12T20:28:39.132Z,16.89
2022-09-12T20:31:23.991Z,17.06
2022-09-12T20:33:52.078Z,17.09
2022-09-12T20:36:20.547Z,17.15
2022-09-12T20:38:53.234Z,17.14
2022-09-12T20:41:21.094Z,17.09
2022-09-12T20:44:03.190Z,17.06
2022-09-12T20:46:29.781Z,17.04
2022-09-12T20:48:56.861Z,17.10
2022-09-12T20:51:25.451Z,17.08
2022-09-12T20:54:10.614Z,17.10
2022-09-12T20:56:37.584Z,16.96
2022-09-12T20:59:04.843Z,16.92
2022-09-12T21:01:31.599Z,16.88
2022-09-12T21:03:59.830Z,16.79
2022-09-12T21:06:26.485Z,16.70
2022-09-12T21:08:53.125Z,16.76
2022-09-12T21:11:19.826Z,16.76
2022-09-12T21:13:46.883Z,16.74
2022-09-12T21:16:18.324Z,16.69
2022-09-12T21:18:45.205Z,16.65
2022-09-12T21:21:13.407Z,16.55
2022-09-12T21:23:40.563Z,16.50
2022-09-12T21:26:08.008Z,16.52
2022-09-12T21:28:34.772Z,16.50
2022-09-12T21:31:01.358Z,16.38
2022-09-12T21:33:28.144Z,16.41
2022-09-12T21:35:54.498Z,16.40
2022-09-12T21:38:20.956Z,16.46
2022-09-12T21:40:47.684Z,16.44
2022-09-12T21:43:14.941Z,16.38
2022-09-12T21:45:41.337Z,16.35
2022-09-12T21:48:07.800Z,16.35
2022-09-12T21:50:34.198Z,16.33
2022-09-12T21:53:00.618Z,16.21
2022-09-12T21:55:27.376Z,16.26
2022-09-12T21:57:54.705Z,16.27
2022-09-12T22:00:22.134Z,16.13
2022-09-12T22:02:48.832Z,16.21
2022-09-12T22:05:15.517Z,16.19
2022-09-12T22:07:42.062Z,16.15
2022-09-12T22:10:09.182Z,16.17
2022-09-12T22:12:35.654Z,16.12
2022-09-12T22:15:17.542Z,16.15
2022-09-12T22:17:48.479Z,16.14
2022-09-12T22:20:14.972Z,16.16
2022-09-12T22:22:59.983Z,16.05
2022-09-12T22:25:26.546Z,16.09
2022-09-12T22:27:54.009Z,16.07
2022-09-12T22:30:21.608Z,16.00
2022-09-12T22:32:49.923Z,15.96
2022-09-12T22:35:17.646Z,15.78
2022-09-12T22:37:44.454Z,15.90
2022-09-12T22:40:11.875Z,15.86
2022-09-12T22:42:38.651Z,15.85
2022-09-12T22:45:06.495Z,15.85
2022-09-12T22:47:33.040Z,15.83
2022-09-12T22:49:59.403Z,15.94
2022-09-12T22:52:26.180Z,15.87
2022-09-12T22:54:53.003Z,15.85
2022-09-12T22:57:19.371Z,15.84
2022-09-12T22:59:46.523Z,15.84
2022-09-12T23:02:12.882Z,15.79
2022-09-12T23:04:39.814Z,15.71
2022-09-12T23:07:06.566Z,15.61
2022-09-12T23:09:35.382Z,15.66
2022-09-12T23:12:02.550Z,15.61
2022-09-12T23:14:28.927Z,15.59
2022-09-12T23:16:55.458Z,15.41
2022-09-12T23:19:21.879Z,15.51
2022-09-12T23:21:48.363Z,15.58
2022-09-12T23:24:14.801Z,15.51
2022-09-12T23:26:41.200Z,15.51
2022-09-12T23:29:07.655Z,15.56
2022-09-12T23:31:34.539Z,15.47
2022-09-12T23:34:03.738Z,15.39
2022-09-12T23:36:30.448Z,15.43
2022-09-12T23:38:57.690Z,15.45
2022-09-12T23:41:24.508Z,15.42
2022-09-12T23:43:50.926Z,15.37
2022-09-12T23:46:18.543Z,15.33
2022-09-12T23:48:45.395Z,15.21
2022-09-12T23:51:12.334Z,15.27
2022-09-12T23:53:39.219Z,15.23
2022-09-12T23:56:06.060Z,15.24
2022-09-12T23:58:32.723Z,15.14
